Time;durP1;ratioP1;P1;durP2;ratioP2;P2;SDS_P1;SDS_P2;PMS_P1;PMS_P2;Temp;Humidity;BMP_temperature;BMP_pressure;BME280_temperature;BME280_humidity;BME280_pressure;Samples;Min_cycle;Max_cycle;Signal;HPM_P1;HPM_P2
2022/11/03 00:01:34;;;;;;;10.85;2.00;;;14.40;99.90;;;;;;5062000;28;20492;-89
2022/11/03 00:04:01;;;;;;;14.18;2.40;;;14.40;99.90;;;;;;5053075;28;20053;-88
2022/11/03 00:06:28;;;;;;;12.88;2.47;;;14.40;99.90;;;;;;5067114;28;20036;-89
2022/11/03 00:08:58;;;;;;;13.10;2.60;;;14.30;99.90;;;;;;5068171;28;20041;-89
2022/11/03 00:11:25;;;;;;;14.70;2.58;;;14.30;99.90;;;;;;5064963;28;20052;-89
2022/11/03 00:13:52;;;;;;;14.10;2.60;;;14.40;99.90;;;;;;5068248;28;20044;-89
2022/11/03 00:16:19;;;;;;;11.13;2.65;;;14.30;99.90;;;;;;5068143;28;20615;-91
2022/11/03 00:18:47;;;;;;;14.82;3.33;;;14.30;99.90;;;;;;5071737;28;20497;-89
2022/11/03 00:21:14;;;;;;;12.63;2.67;;;14.30;99.90;;;;;;5050108;28;20080;-90
2022/11/03 00:23:43;;;;;;;14.48;2.75;;;14.40;99.90;;;;;;5067874;28;20131;-89
2022/11/03 00:26:17;;;;;;;11.32;2.72;;;14.40;99.90;;;;;;5069201;28;20518;-90
2022/11/03 00:28:46;;;;;;;13.73;2.78;;;14.40;99.90;;;;;;5066395;28;20044;-89
2022/11/03 00:31:14;;;;;;;14.93;2.65;;;14.60;99.90;;;;;;5067887;28;20120;-88
2022/11/03 00:33:43;;;;;;;11.63;2.70;;;14.40;99.90;;;;;;5053136;28;20135;-88
2022/11/03 00:36:13;;;;;;;14.48;2.97;;;14.40;99.90;;;;;;5068689;28;20086;-90
2022/11/03 00:38:40;;;;;;;16.10;2.92;;;14.40;99.90;;;;;;5069686;28;20783;-89
2022/11/03 00:41:07;;;;;;;10.60;2.20;;;14.40;99.90;;;;;;5068396;28;20040;-89
2022/11/03 00:43:35;;;;;;;12.13;2.47;;;14.40;99.90;;;;;;5058758;28;20447;-89
2022/11/03 00:46:03;;;;;;;11.48;2.67;;;14.40;99.90;;;;;;5066010;28;20048;-89
2022/11/03 00:48:31;;;;;;;12.52;2.72;;;14.40;99.90;;;;;;5068839;28;20044;-90
2022/11/03 00:51:02;;;;;;;15.30;3.25;;;14.40;99.90;;;;;;5069173;28;20044;-89
2022/11/03 00:53:32;;;;;;;10.10;2.80;;;14.40;99.90;;;;;;5068564;28;20051;-89
2022/11/03 00:55:59;;;;;;;15.43;3.30;;;14.50;99.90;;;;;;5066977;28;20111;-89
2022/11/03 00:58:27;;;;;;;10.70;3.20;;;14.40;99.90;;;;;;5067807;28;20048;-89
2022/11/03 01:00:59;;;;;;;11.98;2.28;;;14.40;99.90;;;;;;5068394;28;20043;-89
2022/11/03 01:03:26;;;;;;;13.15;2.30;;;14.50;99.90;;;;;;5061840;28;20059;-88
2022/11/03 01:08:39;;;;;;;13.55;2.78;;;14.50;99.90;;;;;;5069538;28;20044;-89
2022/11/03 01:13:52;;;;;;;12.90;3.15;;;14.40;99.90;;;;;;5064299;28;20155;-89
2022/11/03 01:16:23;;;;;;;12.52;2.90;;;14.50;99.90;;;;;;5067206;28;20134;-89
2022/11/03 01:18:50;;;;;;;12.85;3.00;;;14.40;99.90;;;;;;5068303;28;20475;-89
2022/11/03 01:21:18;;;;;;;12.52;2.95;;;14.40;99.90;;;;;;5067136;28;20036;-90
2022/11/03 01:23:46;;;;;;;14.13;2.78;;;14.40;99.90;;;;;;5067912;28;20045;-89
2022/11/03 01:26:14;;;;;;;12.32;2.63;;;14.50;99.90;;;;;;5067784;28;20115;-89
2022/11/03 01:28:42;;;;;;;13.27;2.72;;;14.40;99.90;;;;;;5073525;28;20040;-89
2022/11/03 01:31:11;;;;;;;10.93;2.50;;;14.50;99.90;;;;;;5072028;28;20478;-90
2022/11/03 01:33:38;;;;;;;12.48;2.58;;;14.40;99.90;;;;;;5067805;28;20485;-89
2022/11/03 01:36:05;;;;;;;12.32;2.75;;;14.50;99.90;;;;;;5068296;28;20041;-89
2022/11/03 01:38:33;;;;;;;9.63;2.33;;;14.50;99.90;;;;;;5068756;28;20059;-89
2022/11/03 01:41:02;;;;;;;11.70;2.85;;;14.50;99.90;;;;;;5068025;28;20036;-88
2022/11/03 01:43:30;;;;;;;13.70;2.85;;;14.50;99.90;;;;;;5067557;28;20055;-89
2022/11/03 01:46:02;;;;;;;11.48;2.60;;;14.50;99.90;;;;;;5054688;28;20051;-88
2022/11/03 01:48:30;;;;;;;13.25;2.72;;;14.50;99.90;;;;;;5068608;28;20086;-88
2022/11/03 01:50:57;;;;;;;13.77;2.92;;;14.40;99.90;;;;;;5067973;28;20040;-90
2022/11/03 01:53:24;;;;;;;12.95;3.17;;;14.40;99.90;;;;;;5082416;22;20051;-85
2022/11/03 01:55:51;;;;;;;12.55;2.90;;;14.40;99.90;;;;;;5010272;28;20425;-85
2022/11/03 01:58:22;;;;;;;12.30;3.00;;;14.40;99.90;;;;;;5044133;28;20045;-85
2022/11/03 02:00:53;;;;;;;12.23;3.05;;;14.40;99.90;;;;;;5043511;28;20041;-85
2022/11/03 02:03:21;;;;;;;13.00;2.70;;;14.40;99.90;;;;;;5020806;28;20078;-86
2022/11/03 02:05:49;;;;;;;12.65;2.67;;;14.40;99.90;;;;;;5039082;28;20045;-85
2022/11/03 02:08:19;;;;;;;11.80;2.92;;;14.40;99.90;;;;;;5025997;28;20124;-85
2022/11/03 02:10:47;;;;;;;16.52;3.38;;;14.40;99.90;;;;;;5029858;28;20492;-85
2022/11/03 02:13:20;;;;;;;12.02;2.97;;;14.40;99.90;;;;;;5030950;28;20049;-85
2022/11/03 02:15:47;;;;;;;15.77;2.83;;;14.30;99.90;;;;;;5032879;28;20045;-85
2022/11/03 02:18:16;;;;;;;14.00;3.22;;;14.30;99.90;;;;;;5033775;28;20077;-85
2022/11/03 02:20:44;;;;;;;12.63;2.88;;;14.30;99.90;;;;;;5036960;28;20466;-85
2022/11/03 02:23:20;;;;;;;13.98;2.90;;;14.30;99.90;;;;;;5031529;28;20505;-84
2022/11/03 02:25:50;;;;;;;13.88;3.03;;;14.30;99.90;;;;;;5019748;28;20050;-85
2022/11/03 02:28:18;;;;;;;11.18;2.78;;;14.30;99.90;;;;;;5034202;28;20055;-85
2022/11/03 02:30:53;;;;;;;14.93;3.25;;;14.30;99.90;;;;;;5032039;28;20432;-85
2022/11/03 02:33:29;;;;;;;12.90;3.00;;;14.20;99.90;;;;;;5026647;28;20045;-85
2022/11/03 02:35:59;;;;;;;17.45;3.63;;;14.30;99.90;;;;;;5047351;28;20116;-85
2022/11/03 02:38:28;;;;;;;15.32;3.03;;;14.30;99.90;;;;;;5032453;28;20365;-85
2022/11/03 02:40:58;;;;;;;18.30;3.15;;;14.20;99.90;;;;;;5032752;28;20043;-85
2022/11/03 02:43:28;;;;;;;16.27;2.90;;;14.20;99.90;;;;;;5031530;28;20049;-85
2022/11/03 02:45:55;;;;;;;14.38;3.03;;;14.20;99.90;;;;;;5030618;28;20052;-85
2022/11/03 02:48:22;;;;;;;10.68;2.50;;;14.20;99.90;;;;;;5034811;28;20055;-85
2022/11/03 02:50:52;;;;;;;12.80;3.30;;;14.20;99.90;;;;;;5031725;28;20055;-85
2022/11/03 02:53:19;;;;;;;15.68;3.17;;;14.20;99.90;;;;;;5021757;28;20088;-85
2022/11/03 02:55:52;;;;;;;14.52;2.75;;;14.20;99.90;;;;;;5013974;28;20044;-85
2022/11/03 02:58:24;;;;;;;12.90;2.72;;;14.20;99.90;;;;;;5031645;28;20041;-85
2022/11/03 03:00:54;;;;;;;11.57;3.00;;;14.10;99.90;;;;;;5031782;28;20490;-85
2022/11/03 03:03:24;;;;;;;12.75;3.28;;;14.10;99.90;;;;;;5031202;28;20045;-85
2022/11/03 03:05:53;;;;;;;14.23;3.17;;;14.10;99.90;;;;;;5040402;28;20519;-85
2022/11/03 03:08:21;;;;;;;12.05;2.80;;;14.10;99.90;;;;;;5023288;28;20037;-85
2022/11/03 03:10:49;;;;;;;10.93;2.42;;;14.20;99.90;;;;;;5039530;28;20041;-85
2022/11/03 03:13:18;;;;;;;17.10;2.80;;;14.20;99.90;;;;;;5043002;28;20048;-85
2022/11/03 03:15:52;;;;;;;10.63;2.63;;;14.10;99.90;;;;;;5037947;28;20410;-85
2022/11/03 03:18:23;;;;;;;16.27;3.13;;;14.10;99.90;;;;;;5038312;28;20069;-85
2022/11/03 03:20:55;;;;;;;12.52;3.00;;;14.20;99.90;;;;;;5031852;28;20045;-85
2022/11/03 03:23:24;;;;;;;12.15;3.10;;;14.20;99.90;;;;;;5031327;28;20057;-85
2022/11/03 03:25:55;;;;;;;21.15;3.22;;;14.20;99.90;;;;;;5040533;28;20077;-85
2022/11/03 03:28:25;;;;;;;12.50;2.78;;;14.20;99.90;;;;;;5021501;28;20486;-85
2022/11/03 03:30:55;;;;;;;13.27;2.47;;;14.10;99.90;;;;;;5035239;28;20039;-85
2022/11/03 03:33:22;;;;;;;16.27;2.90;;;14.10;99.90;;;;;;5030974;28;20059;-85
2022/11/03 03:35:50;;;;;;;15.10;2.70;;;14.10;99.90;;;;;;5022304;28;20045;-85
2022/11/03 03:38:20;;;;;;;10.90;2.58;;;14.10;99.90;;;;;;5031257;28;20663;-85
2022/11/03 03:40:55;;;;;;;11.13;2.97;;;14.10;99.90;;;;;;5029636;28;20041;-85
2022/11/03 03:43:23;;;;;;;15.15;2.75;;;14.10;99.90;;;;;;5022740;28;20049;-85
2022/11/03 03:45:54;;;;;;;11.65;2.85;;;14.10;99.90;;;;;;5041929;28;20045;-85
2022/11/03 03:48:21;;;;;;;13.90;2.65;;;14.10;99.90;;;;;;5022873;28;20049;-85
2022/11/03 03:50:49;;;;;;;16.35;2.67;;;14.10;99.90;;;;;;5014198;28;20045;-85
2022/11/03 03:53:18;;;;;;;13.35;2.95;;;14.10;99.90;;;;;;5030520;28;20489;-85
2022/11/03 03:55:48;;;;;;;13.30;2.88;;;14.20;99.90;;;;;;5026116;28;20045;-85
2022/11/03 03:58:16;;;;;;;13.07;2.80;;;14.20;99.90;;;;;;5013234;28;20063;-85
2022/11/03 04:00:43;;;;;;;15.90;3.28;;;14.20;99.90;;;;;;5030632;28;20129;-85
2022/11/03 04:03:15;;;;;;;8.88;2.70;;;14.20;99.90;;;;;;5035510;28;20485;-85
2022/11/03 04:05:42;;;;;;;15.40;3.10;;;14.20;99.90;;;;;;5033071;28;20051;-85
2022/11/03 04:08:09;;;;;;;14.70;3.50;;;14.20;99.90;;;;;;5030576;28;20608;-84
2022/11/03 04:10:36;;;;;;;11.52;2.80;;;14.20;99.90;;;;;;5030109;28;20041;-85
2022/11/03 04:24:06;;;;;;;15.25;2.70;;;14.20;99.90;;;;;;5046548;28;20040;-84
2022/11/03 04:26:33;;;;;;;11.77;2.53;;;14.20;99.90;;;;;;5009356;28;20052;-85
2022/11/03 04:29:00;;;;;;;12.10;2.78;;;14.20;99.90;;;;;;5027562;28;20053;-85
2022/11/03 04:31:37;;;;;;;13.50;3.10;;;14.30;99.90;;;;;;5030034;28;20087;-85
2022/11/03 04:34:10;;;;;;;15.05;2.78;;;14.20;99.90;;;;;;5031338;28;20057;-85
2022/11/03 04:36:37;;;;;;;14.32;3.20;;;14.30;99.90;;;;;;5049122;28;20041;-85
2022/11/03 04:39:14;;;;;;;10.23;2.55;;;14.30;99.90;;;;;;5034364;28;20073;-85
2022/11/03 04:41:41;;;;;;;15.40;2.72;;;14.30;99.90;;;;;;5029840;28;20041;-85
2022/11/03 04:44:12;;;;;;;16.58;3.58;;;14.30;99.90;;;;;;5043924;28;20037;-85
2022/11/03 04:46:39;;;;;;;14.43;2.75;;;14.30;99.90;;;;;;5029247;28;20045;-85
2022/11/03 04:49:12;;;;;;;12.68;2.92;;;14.30;99.90;;;;;;5011152;28;20046;-84
2022/11/03 04:51:39;;;;;;;12.85;2.95;;;14.30;99.90;;;;;;5032338;28;20045;-85
2022/11/03 04:54:14;;;;;;;13.50;2.83;;;14.30;99.90;;;;;;5030410;28;20068;-85
2022/11/03 04:56:41;;;;;;;15.65;3.13;;;14.40;99.90;;;;;;5028787;28;20069;-85
2022/11/03 04:59:11;;;;;;;11.05;2.67;;;14.40;99.90;;;;;;5035316;28;20038;-84
2022/11/03 05:01:38;;;;;;;11.40;2.53;;;14.40;99.90;;;;;;5029370;28;20653;-84
2022/11/03 05:04:11;;;;;;;14.00;3.00;;;14.40;99.90;;;;;;5028245;28;20041;-91
2022/11/03 05:06:38;;;;;;;11.68;2.50;;;14.40;99.90;;;;;;5023452;28;20050;-93
2022/11/03 05:09:11;;;;;;;10.55;2.95;;;14.40;99.90;;;;;;5030935;28;20139;-82
2022/11/03 05:11:40;;;;;;;15.15;3.08;;;14.40;99.90;;;;;;5032875;28;20037;-82
2022/11/03 05:14:14;;;;;;;12.95;2.60;;;14.40;99.90;;;;;;5038816;28;20545;-81
2022/11/03 05:16:41;;;;;;;11.85;2.78;;;14.40;99.90;;;;;;5035344;28;20049;-82
2022/11/03 05:19:14;;;;;;;14.35;3.10;;;14.40;99.90;;;;;;5030594;28;20067;-82
2022/11/03 05:21:41;;;;;;;16.08;3.20;;;14.40;99.90;;;;;;5011324;28;20036;-81
2022/11/03 05:24:11;;;;;;;14.77;3.22;;;14.40;99.90;;;;;;5029091;28;20042;-81
2022/11/03 05:26:38;;;;;;;14.05;3.30;;;14.40;99.90;;;;;;5030258;28;20045;-81
2022/11/03 05:29:13;;;;;;;11.55;3.22;;;14.40;99.90;;;;;;5048955;28;20045;-83
2022/11/03 05:31:42;;;;;;;9.57;2.80;;;14.40;99.90;;;;;;5030108;28;20120;-81
2022/11/03 05:34:26;;;;;;;15.23;2.85;;;14.40;99.90;;;;;;5010274;28;20046;-81
2022/11/03 05:36:54;;;;;;;12.60;2.58;;;14.40;99.90;;;;;;5027030;28;20069;-82
2022/11/03 05:39:29;;;;;;;12.48;3.03;;;14.40;99.90;;;;;;5029374;28;20049;-81
2022/11/03 05:41:58;;;;;;;8.10;2.35;;;14.40;99.90;;;;;;5035709;28;20485;-81
2022/11/03 05:44:29;;;;;;;13.02;2.80;;;14.40;99.90;;;;;;5048160;28;20045;-83
2022/11/03 05:46:57;;;;;;;15.98;2.67;;;14.40;99.90;;;;;;5044106;28;20048;-83
2022/11/03 05:49:25;;;;;;;10.30;2.70;;;14.40;99.90;;;;;;5030733;28;20049;-84
2022/11/03 05:51:52;;;;;;;16.70;2.92;;;14.40;99.90;;;;;;5032170;28;20146;-84
2022/11/03 05:54:22;;;;;;;12.40;3.20;;;14.50;99.90;;;;;;5019145;28;20042;-84
2022/11/03 05:56:52;;;;;;;13.32;3.22;;;14.50;99.90;;;;;;5035448;28;20505;-85
2022/11/03 05:59:23;;;;;;;12.18;2.45;;;14.50;99.90;;;;;;5010759;28;20049;-85
2022/11/03 06:01:50;;;;;;;8.60;2.88;;;14.50;99.90;;;;;;5019019;28;20127;-85
2022/11/03 06:04:19;;;;;;;10.63;2.95;;;14.50;99.90;;;;;;5026741;28;20049;-85
2022/11/03 06:06:51;;;;;;;12.40;2.88;;;14.50;99.90;;;;;;5032569;28;20140;-86
2022/11/03 06:09:21;;;;;;;10.05;2.97;;;14.50;99.90;;;;;;5033649;28;20102;-85
2022/11/03 06:11:48;;;;;;;9.48;2.22;;;14.50;99.90;;;;;;5033866;28;20565;-85
2022/11/03 06:14:19;;;;;;;14.55;2.85;;;14.50;99.90;;;;;;5012473;28;20116;-85
2022/11/03 06:16:48;;;;;;;17.63;2.90;;;14.50;99.90;;;;;;5017996;28;20053;-85
2022/11/03 06:19:23;;;;;;;13.93;2.80;;;14.50;99.90;;;;;;5032258;28;20067;-85
2022/11/03 06:21:53;;;;;;;12.30;2.70;;;14.50;99.90;;;;;;5033217;28;20045;-87
2022/11/03 06:24:22;;;;;;;12.60;2.80;;;14.50;99.90;;;;;;5033392;28;20049;-85
2022/11/03 06:26:51;;;;;;;15.50;3.33;;;14.50;99.90;;;;;;5032770;28;20057;-85
2022/11/03 06:29:19;;;;;;;12.00;2.95;;;14.50;99.90;;;;;;5026449;28;20049;-85
2022/11/03 06:31:48;;;;;;;12.45;2.60;;;14.50;99.90;;;;;;5030794;28;20046;-86
2022/11/03 06:34:34;;;;;;;11.57;2.20;;;14.50;99.90;;;;;;5017054;28;20457;-85
2022/11/03 06:37:20;;;;;;;15.23;3.15;;;14.50;99.90;;;;;;5030795;28;20064;-89
2022/11/03 06:39:49;;;;;;;13.70;3.17;;;14.50;99.90;;;;;;5020678;28;20501;-89
2022/11/03 06:42:19;;;;;;;11.15;3.03;;;14.50;99.90;;;;;;5021286;28;20041;-89
2022/11/03 06:44:48;;;;;;;12.23;2.93;;;14.50;99.90;;;;;;5028679;28;20051;-89
2022/11/03 06:47:21;;;;;;;14.25;3.10;;;14.50;99.90;;;;;;5028145;28;20053;-91
2022/11/03 06:49:49;;;;;;;15.77;3.63;;;14.50;99.90;;;;;;5028233;28;20045;-90
2022/11/03 06:52:25;;;;;;;13.27;2.88;;;14.60;99.90;;;;;;5012675;28;20138;-90
2022/11/03 06:54:56;;;;;;;15.57;3.38;;;14.60;99.90;;;;;;5025655;28;20510;-89
2022/11/03 06:57:23;;;;;;;11.50;2.70;;;14.50;99.90;;;;;;5027487;28;20064;-90
2022/11/03 06:59:51;;;;;;;15.70;2.58;;;14.50;99.90;;;;;;5015224;28;20067;-90
2022/11/03 07:02:40;;;;;;;13.27;2.90;;;14.50;99.90;;;;;;5025422;28;20047;-90
2022/11/03 07:05:15;;;;;;;10.88;2.60;;;14.70;99.90;;;;;;5030739;28;20662;-91
2022/11/03 07:07:43;;;;;;;12.02;2.55;;;14.60;99.90;;;;;;5029550;28;20041;-90
2022/11/03 07:10:11;;;;;;;12.48;2.42;;;14.60;99.90;;;;;;5012067;28;20080;-89
2022/11/03 07:12:38;;;;;;;11.38;2.72;;;14.50;99.90;;;;;;5007957;28;20049;-88
2022/11/03 07:15:17;;;;;;;13.15;2.60;;;14.50;99.90;;;;;;5012310;28;20096;-90
2022/11/03 07:17:44;;;;;;;13.85;3.03;;;14.60;99.90;;;;;;5022497;28;20511;-90
2022/11/03 07:20:14;;;;;;;12.90;2.55;;;14.60;99.90;;;;;;5029245;28;20103;-90
2022/11/03 07:22:42;;;;;;;10.23;2.73;;;14.60;99.90;;;;;;5029548;28;20124;-90
2022/11/03 07:25:15;;;;;;;12.45;2.83;;;14.60;99.90;;;;;;5012905;28;20050;-89
2022/11/03 07:27:42;;;;;;;14.73;2.80;;;14.70;99.90;;;;;;5027852;28;20103;-89
2022/11/03 07:30:16;;;;;;;9.73;2.40;;;14.70;99.90;;;;;;5010534;28;20041;-91
2022/11/03 07:32:43;;;;;;;11.20;2.70;;;14.70;99.90;;;;;;5024159;28;20041;-91
2022/11/03 07:35:28;;;;;;;12.15;3.03;;;14.70;99.90;;;;;;5029072;28;20535;-89
2022/11/03 07:38:02;;;;;;;12.55;2.55;;;14.70;99.90;;;;;;5025443;28;20127;-91
2022/11/03 07:40:32;;;;;;;11.18;2.63;;;14.70;99.90;;;;;;5028437;28;20123;-92
2022/11/03 07:43:01;;;;;;;9.65;2.40;;;14.70;99.90;;;;;;5027139;28;20566;-90
2022/11/03 07:45:38;;;;;;;10.68;3.10;;;14.70;99.90;;;;;;5029902;28;20056;-91
2022/11/03 07:48:15;;;;;;;13.55;2.92;;;14.70;99.90;;;;;;5026543;28;20045;-92
2022/11/03 07:50:43;;;;;;;8.88;2.60;;;14.80;99.90;;;;;;5021261;28;20054;-91
2022/11/03 07:53:14;;;;;;;10.75;2.28;;;14.80;99.90;;;;;;5038844;28;20048;-91
2022/11/03 07:55:41;;;;;;;15.13;3.50;;;14.80;99.90;;;;;;5037416;28;20102;-91
2022/11/03 07:58:25;;;;;;;12.20;2.90;;;14.80;99.90;;;;;;5015023;28;20140;-89
2022/11/03 08:00:57;;;;;;;7.55;2.40;;;14.80;99.90;;;;;;5030934;28;20505;-90
2022/11/03 08:03:42;;;;;;;12.48;2.67;;;14.90;99.90;;;;;;5026470;28;20049;-89
2022/11/03 08:06:13;;;;;;;12.85;2.47;;;14.90;99.90;;;;;;5027586;28;20724;-91
2022/11/03 08:08:41;;;;;;;14.02;3.10;;;14.90;99.90;;;;;;5026123;28;20045;-91
2022/11/03 08:11:10;;;;;;;9.75;2.53;;;14.90;99.90;;;;;;5008703;28;20488;-90
2022/11/03 08:13:38;;;;;;;8.32;2.35;;;15.00;99.90;;;;;;5022821;28;20045;-90
2022/11/03 08:16:05;;;;;;;10.77;2.53;;;15.00;99.90;;;;;;5008583;28;20050;-90
2022/11/03 08:18:35;;;;;;;10.32;2.42;;;15.00;99.90;;;;;;5008950;28;20046;-93
2022/11/03 08:21:03;;;;;;;7.45;2.20;;;15.00;99.90;;;;;;5007085;28;20053;-88
2022/11/03 08:23:30;;;;;;;11.38;2.63;;;15.00;99.90;;;;;;5027565;28;20422;-91
2022/11/03 08:25:58;;;;;;;13.32;2.80;;;15.10;99.90;;;;;;5009587;28;20490;-89
2022/11/03 08:28:25;;;;;;;10.95;2.72;;;15.20;99.90;;;;;;5000545;28;20064;-91
2022/11/03 08:30:52;;;;;;;8.55;2.53;;;15.20;99.90;;;;;;5023622;22;20426;-86
2022/11/03 08:33:19;;;;;;;8.15;2.55;;;15.10;99.90;;;;;;5008490;28;20046;-86
2022/11/03 08:35:46;;;;;;;12.07;2.67;;;15.10;99.90;;;;;;5005289;28;20042;-86
2022/11/03 08:38:13;;;;;;;10.85;2.70;;;15.10;99.90;;;;;;5008491;28;20135;-86
2022/11/03 08:40:40;;;;;;;13.32;2.75;;;15.20;99.90;;;;;;5003432;28;20042;-86
2022/11/03 08:43:08;;;;;;;8.75;2.28;;;15.20;99.90;;;;;;4985606;28;20128;-86
2022/11/03 08:45:35;;;;;;;10.23;2.72;;;15.10;99.90;;;;;;4986635;28;20046;-85
2022/11/03 08:48:05;;;;;;;14.15;2.67;;;15.20;99.90;;;;;;4983886;28;20042;-86
2022/11/03 08:50:32;;;;;;;8.05;2.45;;;15.20;99.90;;;;;;4981597;28;20115;-85
2022/11/03 08:52:59;;;;;;;10.25;2.67;;;15.40;99.90;;;;;;4989555;28;20108;-85
2022/11/03 08:55:26;;;;;;;10.15;2.45;;;15.20;99.90;;;;;;4986523;28;20081;-86
2022/11/03 08:57:53;;;;;;;9.70;2.72;;;15.20;99.90;;;;;;4986772;28;20066;-85
2022/11/03 09:00:24;;;;;;;11.13;2.58;;;15.30;99.90;;;;;;4986333;28;20056;-85
2022/11/03 09:02:51;;;;;;;10.13;2.50;;;15.20;99.90;;;;;;4983396;28;20069;-85
2022/11/03 09:05:18;;;;;;;10.60;2.67;;;15.20;99.90;;;;;;4988573;28;20049;-85
2022/11/03 09:07:45;;;;;;;8.88;2.15;;;15.30;99.90;;;;;;4987174;28;20134;-85
2022/11/03 09:10:12;;;;;;;14.77;2.35;;;15.30;99.90;;;;;;4989638;28;20042;-86
2022/11/03 09:12:39;;;;;;;9.25;2.40;;;15.30;99.90;;;;;;4985919;28;20046;-85
2022/11/03 09:15:07;;;;;;;14.88;2.58;;;15.40;99.90;;;;;;4990330;28;20046;-86
2022/11/03 09:17:35;;;;;;;12.52;2.63;;;15.30;99.90;;;;;;4986295;28;20108;-87
2022/11/03 09:20:02;;;;;;;8.65;2.45;;;15.40;99.90;;;;;;4988390;28;20061;-86
2022/11/03 09:22:31;;;;;;;9.88;2.45;;;15.40;99.90;;;;;;4988001;28;20096;-86
2022/11/03 09:24:58;;;;;;;8.50;2.28;;;15.50;99.90;;;;;;4986906;28;20132;-85
2022/11/03 09:27:25;;;;;;;12.45;2.47;;;15.50;99.90;;;;;;4989806;28;20046;-87
2022/11/03 09:29:52;;;;;;;13.20;2.38;;;15.50;99.90;;;;;;4987094;28;20054;-84
2022/11/03 09:32:19;;;;;;;11.82;2.15;;;15.50;99.90;;;;;;4980413;28;20143;-84
2022/11/03 09:34:47;;;;;;;13.70;3.00;;;15.60;99.90;;;;;;4986748;28;20523;-84
2022/11/03 09:37:14;;;;;;;9.90;2.20;;;15.60;99.90;;;;;;4987651;28;20113;-84
2022/11/03 09:39:41;;;;;;;9.35;2.10;;;15.60;99.90;;;;;;4987423;28;20046;-84
2022/11/03 09:42:09;;;;;;;9.77;2.85;;;15.60;99.90;;;;;;4988904;28;20867;-84
2022/11/03 09:44:37;;;;;;;11.40;2.88;;;15.60;99.90;;;;;;4990293;28;20574;-84
2022/11/03 09:47:06;;;;;;;12.90;2.20;;;15.70;99.90;;;;;;4978034;28;20053;-84
2022/11/03 09:49:34;;;;;;;9.10;2.13;;;15.70;99.90;;;;;;4992079;28;20061;-86
2022/11/03 09:52:03;;;;;;;10.40;2.35;;;15.70;99.90;;;;;;4998009;28;20050;-84
2022/11/03 09:54:31;;;;;;;9.23;2.30;;;15.70;99.90;;;;;;4989043;28;20069;-83
2022/11/03 09:57:02;;;;;;;9.75;2.33;;;15.80;99.90;;;;;;4989107;28;20609;-83
2022/11/03 09:59:30;;;;;;;10.75;2.30;;;15.80;99.90;;;;;;4993652;28;20174;-89
2022/11/03 10:01:57;;;;;;;9.65;2.15;;;15.80;99.90;;;;;;4987405;28;20043;-90
2022/11/03 10:04:27;;;;;;;6.60;1.85;;;15.80;99.90;;;;;;4988094;28;20125;-91
2022/11/03 10:06:54;;;;;;;8.55;2.00;;;15.80;99.80;;;;;;4983080;28;20060;-90
2022/11/03 10:09:24;;;;;;;11.48;2.38;;;15.80;99.90;;;;;;4988955;28;20096;-89
2022/11/03 10:11:53;;;;;;;8.95;2.03;;;15.80;99.90;;;;;;4985124;28;20042;-89
2022/11/03 10:14:20;;;;;;;8.77;2.25;;;15.80;99.80;;;;;;4989233;28;20045;-90
2022/11/03 10:16:52;;;;;;;8.13;2.20;;;15.90;99.90;;;;;;4995978;28;20045;-89
2022/11/03 10:19:19;;;;;;;11.55;2.20;;;15.90;99.10;;;;;;4987469;28;20141;-90
2022/11/03 10:21:46;;;;;;;9.02;2.03;;;15.90;99.70;;;;;;4984284;28;20042;-91
2022/11/03 10:24:13;;;;;;;10.10;2.35;;;15.90;99.20;;;;;;4988670;28;20057;-90
2022/11/03 10:26:46;;;;;;;12.95;2.38;;;15.90;99.00;;;;;;4990220;28;20054;-89
2022/11/03 10:29:23;;;;;;;6.82;2.00;;;16.00;99.70;;;;;;4987190;28;20045;-89
2022/11/03 10:31:51;;;;;;;8.23;2.10;;;16.00;99.70;;;;;;4989218;28;20080;-90
2022/11/03 10:34:35;;;;;;;7.82;2.33;;;16.00;99.90;;;;;;4999503;28;20127;-89
2022/11/03 10:37:13;;;;;;;7.22;2.05;;;16.00;99.60;;;;;;4984632;28;20039;-90
2022/11/03 10:39:40;;;;;;;7.45;1.85;;;16.00;99.90;;;;;;4988453;28;20077;-90
2022/11/03 10:42:17;;;;;;;8.45;2.00;;;16.00;99.90;;;;;;4992560;28;20057;-90
2022/11/03 10:44:45;;;;;;;7.85;2.10;;;16.10;99.90;;;;;;4991096;28;20164;-89
2022/11/03 10:47:23;;;;;;;6.63;2.15;;;16.10;99.90;;;;;;4991131;28;20057;-89
2022/11/03 10:49:51;;;;;;;9.13;1.95;;;16.10;99.90;;;;;;4990463;28;20141;-91
2022/11/03 10:52:21;;;;;;;8.65;2.00;;;16.10;99.90;;;;;;4984621;28;20070;-90
2022/11/03 10:54:48;;;;;;;7.63;2.00;;;16.10;99.60;;;;;;4985517;28;20093;-90
2022/11/03 10:57:17;;;;;;;8.18;1.73;;;16.10;99.30;;;;;;4990847;28;20065;-94
2022/11/03 10:59:44;;;;;;;9.18;2.10;;;16.10;99.90;;;;;;4990334;28;20134;-92
2022/11/03 11:02:16;;;;;;;8.43;1.92;;;16.10;98.80;;;;;;4991549;28;20130;-90
2022/11/03 11:04:43;;;;;;;6.32;1.67;;;16.10;98.60;;;;;;4991121;28;20100;-91
2022/11/03 11:07:23;;;;;;;6.53;1.83;;;16.20;98.70;;;;;;4991894;28;20783;-92
2022/11/03 11:09:50;;;;;;;6.70;1.87;;;16.20;98.60;;;;;;4988966;28;20076;-91
2022/11/03 11:12:21;;;;;;;9.07;1.70;;;16.20;98.40;;;;;;4992815;28;20401;-88
2022/11/03 11:14:53;;;;;;;7.90;1.63;;;16.20;97.60;;;;;;4990281;28;20574;-91
2022/11/03 11:17:50;;;;;;;7.80;2.17;;;16.20;98.20;;;;;;4991567;28;20050;-89
2022/11/03 11:20:30;;;;;;;6.85;1.98;;;16.20;97.80;;;;;;4933864;29;20500;-91
2022/11/03 11:23:45;;;;;;;10.45;2.17;;;16.20;98.20;;;;;;4947501;28;20056;-91
2022/11/03 11:26:15;;;;;;;8.32;1.70;;;16.30;96.90;;;;;;4916508;29;20062;-91
2022/11/03 11:28:44;;;;;;;8.63;2.00;;;16.30;97.50;;;;;;4922236;29;20051;-90
2022/11/03 11:31:28;;;;;;;6.63;1.65;;;16.30;97.30;;;;;;4944671;29;20061;-91
2022/11/03 11:34:32;;;;;;;7.78;1.83;;;16.30;97.20;;;;;;4956691;28;20108;-92
2022/11/03 11:37:32;;;;;;;6.72;1.73;;;16.40;97.00;;;;;;4956589;28;20059;-91
2022/11/03 11:39:59;;;;;;;5.88;1.65;;;16.40;96.20;;;;;;4948912;28;20062;-91
2022/11/03 11:42:26;;;;;;;4.82;1.58;;;16.40;95.80;;;;;;4951128;28;20061;-92
2022/11/03 11:45:00;;;;;;;6.63;1.60;;;16.40;96.00;;;;;;4949678;28;20110;-90
2022/11/03 11:47:42;;;;;;;10.38;1.77;;;16.50;95.80;;;;;;4949409;28;20119;-91
2022/11/03 11:50:23;;;;;;;7.32;1.67;;;16.50;95.90;;;;;;4940571;29;20048;-91
2022/11/03 11:52:55;;;;;;;7.10;1.90;;;16.50;96.30;;;;;;4948801;28;20294;-89
2022/11/03 11:55:28;;;;;;;7.13;1.58;;;16.50;95.90;;;;;;4982920;28;20515;-89
2022/11/03 11:57:55;;;;;;;12.02;2.30;;;16.50;96.20;;;;;;4983153;28;20046;-89
2022/11/03 12:00:25;;;;;;;8.50;2.00;;;16.50;96.20;;;;;;4984507;28;20054;-86
2022/11/03 12:02:53;;;;;;;7.38;1.38;;;16.50;95.70;;;;;;4989540;28;20411;-86
2022/11/03 12:05:24;;;;;;;8.25;2.10;;;16.40;95.80;;;;;;4983534;28;20050;-85
2022/11/03 12:07:52;;;;;;;6.80;1.80;;;16.50;96.50;;;;;;4988354;28;20174;-85
2022/11/03 12:10:21;;;;;;;8.55;1.45;;;16.50;96.70;;;;;;4988027;28;20047;-86
2022/11/03 12:12:48;;;;;;;12.60;2.05;;;16.50;96.90;;;;;;4988686;28;20051;-85
2022/11/03 12:15:53;;;;;;;9.30;1.65;;;16.50;96.80;;;;;;4989740;28;20555;-86
2022/11/03 12:18:33;;;;;;;7.35;1.70;;;16.50;97.00;;;;;;4989475;28;20134;-85
2022/11/03 12:21:01;;;;;;;13.38;2.28;;;16.40;97.20;;;;;;4986682;28;20050;-86
2022/11/03 12:23:36;;;;;;;6.32;1.73;;;16.40;97.20;;;;;;4987991;28;20057;-85
2022/11/03 12:26:04;;;;;;;7.32;1.83;;;16.40;97.50;;;;;;4988039;28;20078;-86
2022/11/03 12:28:34;;;;;;;8.15;1.98;;;16.40;97.70;;;;;;4989127;28;20089;-86
2022/11/03 12:31:03;;;;;;;7.25;1.77;;;16.40;98.00;;;;;;4988895;28;20056;-85
2022/11/03 12:33:30;;;;;;;7.55;1.95;;;16.40;97.80;;;;;;4989862;28;20485;-85
2022/11/03 12:35:58;;;;;;;6.90;1.75;;;16.50;98.20;;;;;;4969212;28;20054;-85
2022/11/03 12:38:26;;;;;;;7.93;1.58;;;16.40;98.50;;;;;;4971052;28;20488;-85
2022/11/03 12:40:53;;;;;;;4.13;1.48;;;16.40;98.30;;;;;;4985182;28;20042;-83
2022/11/03 12:43:20;;;;;;;6.13;1.70;;;16.40;98.80;;;;;;4981506;28;20058;-83
2022/11/03 12:45:47;;;;;;;8.95;1.60;;;16.40;99.10;;;;;;4982093;28;20050;-85
2022/11/03 12:48:16;;;;;;;6.30;1.48;;;16.40;99.10;;;;;;4970682;28;20081;-85
2022/11/03 12:50:43;;;;;;;8.40;2.25;;;16.40;98.80;;;;;;4985502;28;20439;-85
2022/11/03 12:53:09;;;;;;;5.93;2.03;;;16.50;99.40;;;;;;4988198;28;20121;-85
2022/11/03 12:55:37;;;;;;;8.65;1.80;;;16.50;99.50;;;;;;4975059;28;20089;-85
2022/11/03 12:58:04;;;;;;;10.88;2.13;;;16.50;99.50;;;;;;4970903;28;20094;-86
2022/11/03 13:00:31;;;;;;;6.85;2.00;;;16.50;99.60;;;;;;4985175;28;20054;-82
2022/11/03 13:02:57;;;;;;;8.02;1.70;;;16.50;99.50;;;;;;4986303;28;20050;-82
2022/11/03 13:05:26;;;;;;;6.05;1.55;;;16.50;99.60;;;;;;4986327;28;20042;-81
2022/11/03 13:07:53;;;;;;;7.72;2.28;;;16.40;99.70;;;;;;4988502;28;20057;-82
2022/11/03 13:10:20;;;;;;;8.48;2.00;;;16.40;99.50;;;;;;4988434;28;20100;-81
2022/11/03 13:12:47;;;;;;;6.30;1.77;;;16.40;99.70;;;;;;4987886;28;20100;-85